createdAt,value
2023-04-12T00:01:15.485Z,100.00
2023-04-12T00:03:44.292Z,100.00
2023-04-12T00:06:13.991Z,100.00
2023-04-12T00:08:42.856Z,100.00
2023-04-12T00:11:11.608Z,100.00
2023-04-12T00:13:40.418Z,100.00
2023-04-12T00:16:15.807Z,100.00
2023-04-12T00:18:45.742Z,100.00
2023-04-12T00:21:17.723Z,100.00
2023-04-12T00:23:46.983Z,100.00
2023-04-12T00:26:15.934Z,100.00
2023-04-12T00:28:46.118Z,100.00
2023-04-12T00:31:15.990Z,100.00
2023-04-12T00:33:44.766Z,100.00
2023-04-12T00:36:13.647Z,100.00
2023-04-12T00:38:45.874Z,100.00
2023-04-12T00:41:14.720Z,100.00
2023-04-12T00:43:43.682Z,100.00
2023-04-12T00:46:12.924Z,100.00
2023-04-12T00:48:42.780Z,100.00
2023-04-12T00:51:11.663Z,100.00
2023-04-12T00:53:41.913Z,100.00
2023-04-12T00:56:12.009Z,100.00
2023-04-12T00:58:41.581Z,100.00
2023-04-12T01:01:10.626Z,100.00
2023-04-12T01:03:44.838Z,100.00
2023-04-12T01:06:29.875Z,100.00
2023-04-12T01:09:12.326Z,100.00
2023-04-12T01:11:52.377Z,100.00
2023-04-12T01:14:46.211Z,100.00
2023-04-12T01:17:24.943Z,100.00
2023-04-12T01:20:13.274Z,100.00
2023-04-12T01:23:41.935Z,100.00
2023-04-12T01:26:23.997Z,100.00
2023-04-12T01:28:56.484Z,100.00
2023-04-12T01:31:27.886Z,100.00
2023-04-12T01:33:58.432Z,100.00
2023-04-12T01:36:29.326Z,100.00
2023-04-12T01:38:58.655Z,100.00
2023-04-12T01:41:27.191Z,100.00
2023-04-12T01:43:57.506Z,100.00
2023-04-12T01:46:26.804Z,100.00
2023-04-12T01:48:56.041Z,100.00
2023-04-12T01:51:38.440Z,100.00
2023-04-12T01:54:12.886Z,100.00
2023-04-12T01:56:47.660Z,100.00
2023-04-12T01:59:20.029Z,100.00
2023-04-12T02:01:48.938Z,100.00
2023-04-12T02:04:19.262Z,100.00
2023-04-12T02:06:49.281Z,100.00
2023-04-12T02:09:18.014Z,100.00
2023-04-12T02:11:49.713Z,100.00
2023-04-12T02:14:19.715Z,100.00
2023-04-12T02:16:50.728Z,100.00
2023-04-12T02:19:20.157Z,100.00
2023-04-12T02:21:52.308Z,100.00
2023-04-12T02:24:21.437Z,100.00
2023-04-12T02:26:50.863Z,100.00
2023-04-12T02:29:21.825Z,100.00
2023-04-12T02:31:51.257Z,100.00
2023-04-12T02:34:21.496Z,100.00
2023-04-12T02:36:56.764Z,100.00
2023-04-12T02:39:26.001Z,100.00
2023-04-12T02:41:54.800Z,100.00
2023-04-12T02:44:24.622Z,100.00
2023-04-12T02:47:14.451Z,100.00
2023-04-12T02:49:47.066Z,100.00
2023-04-12T02:52:18.395Z,100.00
2023-04-12T02:55:06.793Z,100.00
2023-04-12T02:57:38.438Z,100.00
2023-04-12T03:00:12.770Z,100.00
2023-04-12T03:02:49.922Z,100.00
2023-04-12T03:05:24.500Z,100.00
2023-04-12T03:07:54.064Z,100.00
2023-04-12T03:10:28.557Z,100.00
2023-04-12T03:13:05.039Z,100.00
2023-04-12T03:15:50.697Z,100.00
2023-04-12T03:18:21.790Z,100.00
2023-04-12T03:20:53.554Z,100.00
2023-04-12T03:23:22.287Z,100.00
2023-04-12T03:26:00.711Z,100.00
2023-04-12T03:28:36.448Z,100.00
2023-04-12T03:31:10.625Z,100.00
2023-04-12T03:33:47.398Z,100.00
2023-04-12T03:36:27.180Z,100.00
2023-04-12T03:39:10.672Z,100.00
2023-04-12T03:41:40.492Z,100.00
2023-04-12T03:44:09.764Z,100.00
2023-04-12T03:46:39.835Z,100.00
2023-04-12T03:49:12.271Z,100.00
2023-04-12T03:51:42.904Z,100.00
2023-04-12T03:54:12.433Z,100.00
2023-04-12T03:56:52.057Z,100.00
2023-04-12T03:59:26.843Z,100.00
2023-04-12T04:01:58.465Z,100.00
2023-04-12T04:04:29.641Z,100.00
2023-04-12T04:07:02.588Z,100.00
2023-04-12T04:09:36.240Z,100.00
2023-04-12T04:12:05.713Z,100.00
2023-04-12T04:14:36.963Z,100.00
2023-04-12T04:17:09.400Z,100.00
2023-04-12T04:19:38.127Z,100.00
2023-04-12T04:22:08.188Z,100.00
2023-04-12T04:24:39.155Z,100.00
2023-04-12T04:27:09.381Z,100.00
2023-04-12T04:29:44.416Z,100.00
2023-04-12T04:32:16.889Z,100.00
2023-04-12T04:34:47.759Z,100.00
2023-04-12T04:37:19.855Z,100.00
2023-04-12T04:39:50.886Z,100.00
2023-04-12T04:42:19.945Z,100.00
2023-04-12T04:45:04.619Z,100.00
2023-04-12T04:47:40.771Z,100.00
2023-04-12T04:50:10.420Z,100.00
2023-04-12T04:52:41.028Z,100.00
2023-04-12T04:55:14.232Z,100.00
2023-04-12T04:57:46.504Z,100.00
2023-04-12T05:00:16.599Z,100.00
2023-04-12T05:02:50.616Z,100.00
2023-04-12T05:05:26.148Z,100.00
2023-04-12T05:08:02.002Z,100.00
2023-04-12T05:10:32.606Z,100.00
2023-04-12T05:13:04.254Z,100.00
2023-04-12T05:15:32.884Z,100.00
2023-04-12T05:18:03.611Z,100.00
2023-04-12T05:20:32.691Z,100.00
2023-04-12T05:23:01.452Z,100.00
2023-04-12T05:25:29.958Z,100.00
2023-04-12T05:28:11.528Z,100.00
2023-04-12T05:30:40.989Z,100.00
2023-04-12T05:33:12.828Z,100.00
2023-04-12T05:35:46.851Z,100.00
2023-04-12T05:38:15.358Z,100.00
2023-04-12T05:40:46.474Z,100.00
2023-04-12T05:43:17.828Z,100.00
2023-04-12T05:45:46.369Z,100.00
2023-04-12T05:48:16.357Z,100.00
2023-04-12T05:50:52.622Z,100.00
2023-04-12T05:53:23.683Z,100.00
2023-04-12T05:55:54.343Z,100.00
2023-04-12T05:58:24.196Z,100.00
2023-04-12T06:00:55.852Z,100.00
2023-04-12T06:03:26.058Z,100.00
2023-04-12T06:05:59.244Z,100.00
2023-04-12T06:08:29.402Z,100.00
2023-04-12T06:10:58.016Z,100.00
2023-04-12T06:13:28.768Z,100.00
2023-04-12T06:15:57.884Z,100.00
2023-04-12T06:18:27.958Z,100.00
2023-04-12T06:20:56.789Z,100.00
2023-04-12T06:23:25.826Z,100.00
2023-04-12T06:25:54.904Z,100.00
2023-04-12T06:28:23.487Z,100.00
2023-04-12T06:30:54.855Z,100.00
2023-04-12T06:33:24.292Z,100.00
2023-04-12T06:35:55.318Z,100.00
2023-04-12T06:38:24.570Z,100.00
2023-04-12T06:40:53.397Z,100.00
2023-04-12T06:43:22.823Z,100.00
2023-04-12T06:45:51.317Z,100.00
2023-04-12T06:48:20.196Z,100.00
2023-04-12T06:50:48.883Z,100.00
2023-04-12T06:53:18.634Z,100.00
2023-04-12T06:55:47.363Z,100.00
2023-04-12T06:58:16.188Z,100.00
2023-04-12T07:00:47.764Z,100.00
2023-04-12T07:03:16.237Z,100.00
2023-04-12T07:05:45.141Z,100.00
2023-04-12T07:08:13.659Z,100.00
2023-04-12T07:10:43.362Z,100.00
2023-04-12T07:13:12.073Z,100.00
2023-04-12T07:15:40.940Z,100.00
2023-04-12T07:18:10.113Z,100.00
2023-04-12T07:20:38.550Z,100.00
2023-04-12T07:23:07.002Z,100.00
2023-04-12T07:25:38.005Z,100.00
2023-04-12T07:28:09.029Z,100.00
2023-04-12T07:30:39.928Z,100.00
2023-04-12T07:33:19.168Z,100.00
2023-04-12T07:35:48.600Z,100.00
2023-04-12T07:38:17.142Z,100.00
2023-04-12T07:40:47.694Z,100.00
2023-04-12T07:43:19.826Z,100.00
2023-04-12T07:45:49.398Z,100.00
2023-04-12T07:48:17.956Z,100.00
2023-04-12T07:50:46.891Z,100.00
2023-04-12T07:53:23.264Z,100.00
2023-04-12T07:55:52.253Z,100.00
2023-04-12T07:58:24.120Z,100.00
2023-04-12T08:00:53.100Z,100.00
2023-04-12T08:03:21.967Z,97.38
2023-04-12T08:05:53.844Z,97.85
2023-04-12T08:08:23.229Z,93.36
2023-04-12T08:10:52.562Z,97.07
2023-04-12T08:13:22.907Z,89.96
2023-04-12T08:15:52.008Z,90.39
2023-04-12T08:18:21.082Z,80.60
2023-04-12T08:20:49.821Z,75.49
2023-04-12T08:23:18.892Z,79.09
2023-04-12T08:25:47.623Z,79.36
2023-04-12T08:28:16.737Z,71.52
2023-04-12T08:30:46.866Z,69.73
2023-04-12T08:33:15.635Z,70.70
2023-04-12T08:35:44.403Z,72.05
2023-04-12T08:38:12.860Z,70.88
2023-04-12T08:40:44.388Z,68.31
2023-04-12T08:43:14.015Z,66.41
2023-04-12T08:45:43.073Z,66.22
2023-04-12T08:48:13.488Z,62.78
2023-04-12T08:50:45.518Z,59.61
2023-04-12T08:53:14.280Z,57.32
2023-04-12T08:55:45.667Z,57.31
2023-04-12T08:58:16.592Z,54.83
2023-04-12T09:00:46.400Z,53.07
2023-04-12T09:03:16.377Z,52.16
2023-04-12T09:05:45.041Z,51.63
2023-04-12T09:08:13.728Z,51.69
2023-04-12T09:10:42.822Z,52.97
2023-04-12T09:13:11.672Z,54.30
2023-04-12T09:15:51.259Z,51.35
2023-04-12T09:18:21.101Z,50.25
2023-04-12T09:21:06.854Z,48.79
2023-04-12T09:23:36.347Z,50.63
2023-04-12T09:26:05.463Z,50.72
2023-04-12T09:28:34.124Z,49.89
2023-04-12T09:31:04.132Z,49.59
2023-04-12T09:33:39.376Z,49.79
2023-04-12T09:36:13.671Z,47.75
2023-04-12T09:38:43.969Z,46.08
2023-04-12T09:41:26.508Z,46.63
2023-04-12T09:43:56.102Z,47.94
2023-04-12T09:46:25.139Z,49.28
2023-04-12T09:48:58.662Z,50.51
2023-04-12T09:51:29.600Z,50.07
2023-04-12T09:54:01.457Z,48.50
2023-04-12T09:56:33.171Z,49.35
2023-04-12T09:59:04.668Z,47.86
2023-04-12T10:01:39.742Z,46.63
2023-04-12T10:04:11.505Z,46.69
2023-04-12T10:06:41.449Z,47.19
2023-04-12T10:09:11.232Z,44.87
2023-04-12T10:11:41.886Z,42.39
2023-04-12T10:14:15.018Z,43.10
2023-04-12T10:16:46.513Z,43.97
2023-04-12T10:19:18.241Z,43.87
2023-04-12T10:21:46.625Z,43.35
2023-04-12T10:24:16.648Z,43.40
2023-04-12T10:26:45.687Z,43.17
2023-04-12T10:29:30.242Z,42.87
2023-04-12T10:32:19.396Z,43.29
2023-04-12T10:34:56.168Z,43.32
2023-04-12T10:37:52.299Z,43.07
2023-04-12T10:40:21.149Z,42.74
2023-04-12T10:42:50.020Z,43.05
2023-04-12T10:45:40.442Z,42.93
2023-04-12T10:48:09.102Z,42.34
2023-04-12T10:50:39.071Z,42.61
2023-04-12T10:53:26.254Z,43.17
2023-04-12T10:55:55.227Z,44.08
2023-04-12T10:59:00.813Z,44.31
2023-04-12T11:01:37.787Z,43.03
2023-04-12T11:04:17.019Z,42.23
2023-04-12T11:07:02.929Z,42.42
2023-04-12T11:09:51.958Z,42.48
2023-04-12T11:12:30.263Z,42.34
2023-04-12T11:15:02.237Z,42.79
2023-04-12T11:18:00.955Z,43.02
2023-04-12T11:20:29.868Z,42.40
2023-04-12T11:23:03.455Z,42.56
2023-04-12T11:25:33.138Z,43.25
2023-04-12T11:28:04.072Z,43.68
2023-04-12T11:30:37.240Z,43.34
2023-04-12T11:33:06.250Z,43.16
2023-04-12T11:35:35.534Z,42.72
2023-04-12T11:38:05.794Z,42.48
2023-04-12T11:40:34.541Z,42.01
2023-04-12T11:43:03.114Z,41.76
2023-04-12T11:45:32.024Z,41.72
2023-04-12T11:48:00.658Z,41.74
2023-04-12T11:50:32.691Z,42.25
2023-04-12T11:53:19.495Z,41.59
2023-04-12T11:55:50.659Z,41.29
2023-04-12T11:58:23.638Z,40.40
2023-04-12T12:00:53.270Z,40.66
2023-04-12T12:03:22.345Z,40.35
2023-04-12T12:05:52.264Z,39.59
2023-04-12T12:08:24.396Z,39.67
2023-04-12T12:11:07.015Z,39.70
2023-04-12T12:13:47.794Z,40.09
2023-04-12T12:16:16.426Z,40.91
2023-04-12T12:18:47.099Z,39.09
2023-04-12T12:21:16.891Z,39.42
2023-04-12T12:23:48.912Z,40.17
2023-04-12T12:26:22.853Z,39.45
2023-04-12T12:28:53.233Z,38.81
2023-04-12T12:31:25.545Z,39.17
2023-04-12T12:33:57.837Z,38.61
2023-04-12T12:36:33.382Z,38.59
2023-04-12T12:39:10.721Z,37.98
2023-04-12T12:41:41.162Z,38.00
2023-04-12T12:44:11.285Z,38.63
2023-04-12T12:46:53.492Z,38.37
2023-04-12T12:49:24.270Z,38.43
2023-04-12T12:51:53.071Z,38.27
2023-04-12T12:54:39.272Z,38.15
2023-04-12T12:57:08.540Z,37.35
2023-04-12T12:59:37.353Z,37.89
2023-04-12T13:02:07.450Z,37.93
2023-04-12T13:04:36.446Z,38.28
2023-04-12T13:07:05.239Z,38.71
2023-04-12T13:09:35.080Z,37.66
2023-04-12T13:12:04.197Z,37.15
2023-04-12T13:14:32.964Z,37.50
2023-04-12T13:17:01.754Z,37.66
2023-04-12T13:19:30.566Z,37.63
2023-04-12T13:21:59.312Z,39.23
2023-04-12T13:24:27.791Z,42.17
2023-04-12T13:26:58.343Z,40.46
2023-04-12T13:29:27.332Z,37.77
2023-04-12T13:31:56.185Z,37.15
2023-04-12T13:34:24.840Z,35.71
2023-04-12T13:36:53.834Z,35.17
2023-04-12T13:39:22.967Z,34.58
2023-04-12T13:41:51.906Z,34.73
2023-04-12T13:44:22.298Z,34.28
2023-04-12T13:46:51.943Z,34.13
2023-04-12T13:49:20.466Z,34.11
2023-04-12T13:51:49.011Z,34.29
2023-04-12T13:54:17.492Z,33.97
2023-04-12T13:56:46.320Z,34.97
2023-04-12T13:59:15.335Z,35.67
2023-04-12T14:01:45.450Z,35.83
2023-04-12T14:04:14.128Z,36.17
2023-04-12T14:06:42.932Z,36.41
2023-04-12T14:09:11.731Z,36.75
2023-04-12T14:11:48.095Z,36.56
2023-04-12T14:14:17.097Z,36.30
2023-04-12T14:16:47.856Z,35.75
2023-04-12T14:19:16.583Z,36.05
2023-04-12T14:21:45.552Z,35.93
2023-04-12T14:24:14.377Z,36.08
2023-04-12T14:26:43.080Z,36.26
2023-04-12T14:29:11.579Z,36.55
2023-04-12T14:31:40.713Z,36.65
2023-04-12T14:34:11.126Z,36.61
2023-04-12T14:36:39.618Z,36.48
2023-04-12T14:39:11.591Z,37.05
2023-04-12T14:41:42.103Z,36.94
2023-04-12T14:44:11.030Z,36.72
2023-04-12T14:46:39.702Z,37.10
2023-04-12T14:49:09.927Z,37.13
2023-04-12T14:51:38.648Z,37.43
2023-04-12T14:54:07.190Z,37.47
2023-04-12T14:56:43.501Z,38.05
2023-04-12T14:59:18.425Z,38.17
2023-04-12T15:01:47.004Z,38.54
2023-04-12T15:04:17.229Z,38.72
2023-04-12T15:06:46.181Z,39.39
2023-04-12T15:09:17.715Z,39.16
2023-04-12T15:11:50.635Z,39.21
2023-04-12T15:14:20.614Z,38.75
2023-04-12T15:16:50.367Z,39.08
2023-04-12T15:19:23.431Z,39.15
2023-04-12T15:21:54.981Z,39.58
2023-04-12T15:24:24.366Z,39.33
2023-04-12T15:26:53.933Z,39.79
2023-04-12T15:29:24.360Z,40.06
2023-04-12T15:31:53.424Z,40.14
2023-04-12T15:34:25.225Z,40.05
2023-04-12T15:36:53.820Z,40.20
2023-04-12T15:39:22.529Z,40.35
2023-04-12T15:41:51.244Z,40.65
2023-04-12T15:44:20.044Z,41.40
2023-04-12T15:46:56.220Z,41.77
2023-04-12T15:49:35.596Z,42.23
2023-04-12T15:52:04.802Z,42.34
2023-04-12T15:54:33.636Z,43.25
2023-04-12T15:57:09.597Z,43.69
2023-04-12T15:59:38.827Z,43.92
2023-04-12T16:02:09.992Z,44.15
2023-04-12T16:04:40.513Z,44.12
2023-04-12T16:07:09.490Z,44.29
2023-04-12T16:09:40.562Z,44.24
2023-04-12T16:12:09.087Z,44.50
2023-04-12T16:14:38.085Z,44.37
2023-04-12T16:17:07.603Z,44.24
2023-04-12T16:19:36.368Z,44.51
2023-04-12T16:22:06.576Z,44.89
2023-04-12T16:24:37.460Z,44.54
2023-04-12T16:27:07.155Z,44.54
2023-04-12T16:29:35.602Z,44.37
2023-04-12T16:32:04.180Z,44.61
2023-04-12T16:34:33.709Z,45.08
2023-04-12T16:37:02.713Z,45.80
2023-04-12T16:39:33.986Z,46.20
2023-04-12T16:42:06.144Z,46.84
2023-04-12T16:44:34.928Z,47.17
2023-04-12T16:47:03.407Z,47.23
2023-04-12T16:49:32.195Z,47.37
2023-04-12T16:52:01.809Z,47.27
2023-04-12T16:54:31.865Z,47.61
2023-04-12T16:57:00.427Z,48.01
2023-04-12T16:59:29.481Z,48.75
2023-04-12T17:02:00.684Z,49.19
2023-04-12T17:04:30.049Z,49.48
2023-04-12T17:06:58.946Z,49.71
2023-04-12T17:09:28.060Z,49.55
2023-04-12T17:11:59.148Z,49.91
2023-04-12T17:14:30.880Z,50.04
2023-04-12T17:16:59.916Z,50.96
2023-04-12T17:19:28.667Z,51.67
2023-04-12T17:21:57.450Z,53.40
2023-04-12T17:24:26.666Z,53.74
2023-04-12T17:26:55.329Z,55.98
2023-04-12T17:29:25.638Z,57.95
2023-04-12T17:31:55.194Z,58.97
2023-04-12T17:34:23.672Z,61.17
2023-04-12T17:36:55.221Z,59.39
2023-04-12T17:39:23.956Z,63.72
2023-04-12T17:41:52.748Z,61.86
2023-04-12T17:44:21.502Z,63.75
2023-04-12T17:46:51.380Z,62.65
2023-04-12T17:49:20.211Z,63.13
2023-04-12T17:51:48.974Z,63.92
2023-04-12T17:54:17.728Z,63.36
2023-04-12T17:56:46.485Z,63.32
2023-04-12T17:59:15.788Z,63.37
2023-04-12T18:01:44.850Z,63.49
2023-04-12T18:04:14.958Z,63.57
2023-04-12T18:06:43.921Z,63.15
2023-04-12T18:09:12.860Z,63.01
2023-04-12T18:11:43.400Z,63.00
2023-04-12T18:14:13.607Z,62.81
2023-04-12T18:16:42.208Z,62.91
2023-04-12T18:19:11.516Z,63.04
2023-04-12T18:21:41.551Z,62.79
2023-04-12T18:24:10.680Z,63.08
2023-04-12T18:26:39.510Z,63.42
2023-04-12T18:29:08.292Z,64.69
2023-04-12T18:31:40.029Z,65.74
2023-04-12T18:34:09.339Z,65.95
2023-04-12T18:36:38.226Z,66.82
2023-04-12T18:39:08.926Z,67.10
2023-04-12T18:41:37.993Z,68.69
2023-04-12T18:44:09.180Z,68.46
2023-04-12T18:46:38.046Z,68.79
2023-04-12T18:49:06.768Z,69.48
2023-04-12T18:51:36.039Z,69.96
2023-04-12T18:54:07.330Z,70.96
2023-04-12T18:56:37.779Z,71.50
2023-04-12T18:59:06.359Z,74.35
2023-04-12T19:01:36.965Z,73.12
2023-04-12T19:04:05.892Z,75.48
2023-04-12T19:06:34.928Z,76.65
2023-04-12T19:09:04.292Z,77.01
2023-04-12T19:11:35.517Z,77.35
2023-04-12T19:14:07.615Z,77.16
2023-04-12T19:16:36.888Z,78.88
2023-04-12T19:19:06.050Z,79.65
2023-04-12T19:21:35.506Z,79.44
2023-04-12T19:24:04.723Z,79.54
2023-04-12T19:26:36.646Z,78.88
2023-04-12T19:29:08.733Z,78.79
2023-04-12T19:31:37.924Z,79.24
2023-04-12T19:34:06.937Z,80.01
2023-04-12T19:36:35.989Z,79.89
2023-04-12T19:39:06.295Z,80.43
2023-04-12T19:41:48.475Z,80.22
2023-04-12T19:44:18.840Z,80.81
2023-04-12T19:46:48.392Z,80.56
2023-04-12T19:49:17.117Z,80.51
2023-04-12T19:51:46.232Z,80.79
2023-04-12T19:54:15.026Z,83.69
2023-04-12T19:56:44.212Z,84.14
2023-04-12T19:59:13.452Z,84.05
2023-04-12T20:01:47.885Z,84.22
2023-04-12T20:04:17.563Z,83.99
2023-04-12T20:06:47.240Z,83.73
2023-04-12T20:09:16.132Z,83.69
2023-04-12T20:11:44.952Z,83.90
2023-04-12T20:14:13.456Z,84.58
2023-04-12T20:16:43.901Z,84.80
2023-04-12T20:19:13.281Z,84.73
2023-04-12T20:21:41.716Z,84.41
2023-04-12T20:24:10.116Z,84.34
2023-04-12T20:26:38.817Z,83.95
2023-04-12T20:29:08.005Z,84.79
2023-04-12T20:31:37.126Z,85.19
2023-04-12T20:34:07.024Z,85.88
2023-04-12T20:36:35.874Z,86.04
2023-04-12T20:39:05.584Z,86.20
2023-04-12T20:41:38.182Z,87.39
2023-04-12T20:44:08.426Z,87.42
2023-04-12T20:46:37.591Z,87.08
2023-04-12T20:49:07.609Z,87.32
2023-04-12T20:51:36.396Z,86.96
2023-04-12T20:54:05.133Z,87.90
2023-04-12T20:56:33.616Z,89.60
2023-04-12T20:59:02.816Z,90.38
2023-04-12T21:01:31.819Z,90.87
2023-04-12T21:04:06.312Z,92.23
2023-04-12T21:06:37.527Z,93.56
2023-04-12T21:09:06.868Z,95.27
2023-04-12T21:11:36.439Z,96.73
2023-04-12T21:14:05.158Z,98.16
2023-04-12T21:16:33.784Z,99.86
2023-04-12T21:19:02.829Z,100.00
2023-04-12T21:21:35.244Z,100.00
2023-04-12T21:24:04.605Z,100.00
2023-04-12T21:26:33.515Z,100.00
2023-04-12T21:29:02.480Z,100.00
2023-04-12T21:31:31.558Z,100.00
2023-04-12T21:34:02.204Z,100.00
2023-04-12T21:36:30.638Z,100.00
2023-04-12T21:39:01.201Z,100.00
2023-04-12T21:41:30.521Z,100.00
2023-04-12T21:43:58.936Z,100.00
2023-04-12T21:46:28.828Z,100.00
2023-04-12T21:48:57.656Z,100.00
2023-04-12T21:51:26.527Z,100.00
2023-04-12T21:53:55.309Z,100.00
2023-04-12T21:56:25.104Z,100.00
2023-04-12T21:58:53.596Z,100.00
2023-04-12T22:01:22.063Z,100.00
2023-04-12T22:03:50.891Z,100.00
2023-04-12T22:06:20.173Z,100.00
2023-04-12T22:08:49.633Z,100.00
2023-04-12T22:11:18.383Z,100.00
2023-04-12T22:13:48.203Z,100.00
2023-04-12T22:16:17.173Z,100.00
2023-04-12T22:18:47.666Z,100.00
2023-04-12T22:21:16.693Z,100.00
2023-04-12T22:23:45.769Z,100.00
2023-04-12T22:26:15.273Z,100.00
2023-04-12T22:28:44.382Z,100.00
2023-04-12T22:31:16.156Z,100.00
2023-04-12T22:33:48.057Z,100.00
2023-04-12T22:36:17.659Z,100.00
2023-04-12T22:38:47.580Z,100.00
2023-04-12T22:41:17.460Z,100.00
2023-04-12T22:43:47.651Z,100.00
2023-04-12T22:46:18.799Z,100.00
2023-04-12T22:48:48.209Z,100.00
2023-04-12T22:51:16.910Z,100.00
2023-04-12T22:53:45.399Z,100.00
2023-04-12T22:56:14.163Z,100.00
2023-04-12T22:58:43.136Z,100.00
2023-04-12T23:01:11.870Z,100.00
2023-04-12T23:03:43.092Z,100.00
2023-04-12T23:06:13.339Z,100.00
2023-04-12T23:08:43.601Z,100.00
2023-04-12T23:11:12.335Z,100.00
2023-04-12T23:13:41.053Z,100.00
2023-04-12T23:16:10.008Z,100.00
2023-04-12T23:18:38.964Z,100.00
2023-04-12T23:21:11.916Z,100.00
2023-04-12T23:23:40.661Z,100.00
2023-04-12T23:26:10.784Z,100.00
2023-04-12T23:28:40.339Z,100.00
2023-04-12T23:31:09.840Z,100.00
2023-04-12T23:33:43.362Z,100.00
2023-04-12T23:36:14.454Z,100.00
2023-04-12T23:38:44.238Z,100.00
2023-04-12T23:41:13.117Z,100.00
2023-04-12T23:43:41.873Z,100.00
2023-04-12T23:46:11.087Z,100.00
2023-04-12T23:48:39.877Z,100.00
2023-04-12T23:51:08.930Z,100.00
2023-04-12T23:53:38.859Z,100.00
2023-04-12T23:56:08.932Z,100.00
2023-04-12T23:58:37.626Z,100.00
